sensor_id;sensor_type;location;lat;lon;timestamp;P1;durP1;ratioP1;P2;durP2;ratioP2
32323;SDS011;25666;44.350;9.222;2023-03-16T00:00:41;5.88;;;1.65;;
32323;SDS011;25666;44.350;9.222;2023-03-16T00:03:07;3.83;;;1.60;;
32323;SDS011;25666;44.350;9.222;2023-03-16T00:05:34;3.72;;;1.67;;
32323;SDS011;25666;44.350;9.222;2023-03-16T00:07:59;3.20;;;1.40;;
32323;SDS011;25666;44.350;9.222;2023-03-16T00:10:25;3.15;;;1.38;;
32323;SDS011;25666;44.350;9.222;2023-03-16T00:12:54;3.00;;;1.40;;
32323;SDS011;25666;44.350;9.222;2023-03-16T00:15:20;4.10;;;1.55;;
32323;SDS011;25666;44.350;9.222;2023-03-16T00:17:47;4.43;;;1.70;;
32323;SDS011;25666;44.350;9.222;2023-03-16T00:20:13;3.30;;;1.55;;
32323;SDS011;25666;44.350;9.222;2023-03-16T00:22:40;1.90;;;1.15;;
32323;SDS011;25666;44.350;9.222;2023-03-16T00:25:09;3.33;;;1.23;;
32323;SDS011;25666;44.350;9.222;2023-03-16T00:27:36;2.45;;;1.25;;
32323;SDS011;25666;44.350;9.222;2023-03-16T00:30:02;1.48;;;0.98;;
32323;SDS011;25666;44.350;9.222;2023-03-16T00:32:30;3.30;;;1.58;;
32323;SDS011;25666;44.350;9.222;2023-03-16T00:34:57;1.73;;;1.10;;
32323;SDS011;25666;44.350;9.222;2023-03-16T00:37:24;1.20;;;1.10;;
32323;SDS011;25666;44.350;9.222;2023-03-16T00:39:51;5.53;;;1.50;;
32323;SDS011;25666;44.350;9.222;2023-03-16T00:42:20;4.38;;;1.38;;
32323;SDS011;25666;44.350;9.222;2023-03-16T00:44:51;2.83;;;1.43;;
32323;SDS011;25666;44.350;9.222;2023-03-16T00:47:21;3.03;;;1.00;;
32323;SDS011;25666;44.350;9.222;2023-03-16T00:49:51;1.98;;;1.13;;
32323;SDS011;25666;44.350;9.222;2023-03-16T00:52:17;1.88;;;0.95;;
32323;SDS011;25666;44.350;9.222;2023-03-16T00:54:44;2.20;;;0.98;;
32323;SDS011;25666;44.350;9.222;2023-03-16T00:57:11;3.33;;;0.85;;
32323;SDS011;25666;44.350;9.222;2023-03-16T00:59:38;3.92;;;1.02;;
32323;SDS011;25666;44.350;9.222;2023-03-16T01:02:05;5.53;;;1.08;;
32323;SDS011;25666;44.350;9.222;2023-03-16T01:04:31;2.05;;;0.90;;
32323;SDS011;25666;44.350;9.222;2023-03-16T01:06:58;2.83;;;0.88;;
32323;SDS011;25666;44.350;9.222;2023-03-16T01:09:24;3.75;;;0.70;;
32323;SDS011;25666;44.350;9.222;2023-03-16T01:11:50;1.58;;;0.80;;
32323;SDS011;25666;44.350;9.222;2023-03-16T01:14:18;3.72;;;1.20;;
32323;SDS011;25666;44.350;9.222;2023-03-16T01:16:45;0.70;;;0.63;;
32323;SDS011;25666;44.350;9.222;2023-03-16T01:19:11;1.30;;;0.80;;
32323;SDS011;25666;44.350;9.222;2023-03-16T01:21:38;1.77;;;0.90;;
32323;SDS011;25666;44.350;9.222;2023-03-16T01:24:04;6.05;;;0.88;;
32323;SDS011;25666;44.350;9.222;2023-03-16T01:26:29;1.90;;;1.05;;
32323;SDS011;25666;44.350;9.222;2023-03-16T01:28:55;4.00;;;1.20;;
32323;SDS011;25666;44.350;9.222;2023-03-16T01:31:21;1.70;;;1.10;;
32323;SDS011;25666;44.350;9.222;2023-03-16T01:33:47;1.90;;;1.02;;
32323;SDS011;25666;44.350;9.222;2023-03-16T01:36:18;1.90;;;0.90;;
32323;SDS011;25666;44.350;9.222;2023-03-16T01:39:03;2.13;;;0.90;;
32323;SDS011;25666;44.350;9.222;2023-03-16T01:41:35;1.65;;;1.10;;
32323;SDS011;25666;44.350;9.222;2023-03-16T01:44:00;3.03;;;0.88;;
32323;SDS011;25666;44.350;9.222;2023-03-16T01:46:27;5.28;;;1.20;;
32323;SDS011;25666;44.350;9.222;2023-03-16T01:51:42;1.27;;;0.77;;
32323;SDS011;25666;44.350;9.222;2023-03-16T01:54:32;0.93;;;0.70;;
32323;SDS011;25666;44.350;9.222;2023-03-16T01:57:02;2.15;;;0.93;;
32323;SDS011;25666;44.350;9.222;2023-03-16T01:59:32;1.45;;;0.60;;
32323;SDS011;25666;44.350;9.222;2023-03-16T02:02:19;4.05;;;0.90;;
32323;SDS011;25666;44.350;9.222;2023-03-16T02:04:49;3.55;;;0.80;;
32323;SDS011;25666;44.350;9.222;2023-03-16T02:07:23;2.28;;;0.95;;
32323;SDS011;25666;44.350;9.222;2023-03-16T02:09:51;2.45;;;0.90;;
32323;SDS011;25666;44.350;9.222;2023-03-16T02:12:21;1.67;;;0.80;;
32323;SDS011;25666;44.350;9.222;2023-03-16T02:14:51;1.25;;;0.90;;
32323;SDS011;25666;44.350;9.222;2023-03-16T02:17:22;3.78;;;1.13;;
32323;SDS011;25666;44.350;9.222;2023-03-16T02:22:46;1.77;;;1.17;;
32323;SDS011;25666;44.350;9.222;2023-03-16T02:25:14;2.08;;;1.23;;
32323;SDS011;25666;44.350;9.222;2023-03-16T02:28:06;3.50;;;0.98;;
32323;SDS011;25666;44.350;9.222;2023-03-16T02:30:50;1.35;;;1.17;;
32323;SDS011;25666;44.350;9.222;2023-03-16T02:33:17;1.88;;;1.13;;
32323;SDS011;25666;44.350;9.222;2023-03-16T02:35:45;1.25;;;0.82;;
32323;SDS011;25666;44.350;9.222;2023-03-16T02:38:10;1.58;;;0.88;;
32323;SDS011;25666;44.350;9.222;2023-03-16T02:40:42;1.05;;;0.88;;
32323;SDS011;25666;44.350;9.222;2023-03-16T02:43:19;1.52;;;0.82;;
32323;SDS011;25666;44.350;9.222;2023-03-16T02:46:02;1.30;;;0.80;;
32323;SDS011;25666;44.350;9.222;2023-03-16T02:48:35;3.92;;;1.02;;
32323;SDS011;25666;44.350;9.222;2023-03-16T02:51:09;1.58;;;0.90;;
32323;SDS011;25666;44.350;9.222;2023-03-16T02:53:35;2.72;;;0.85;;
32323;SDS011;25666;44.350;9.222;2023-03-16T02:56:01;2.22;;;0.85;;
32323;SDS011;25666;44.350;9.222;2023-03-16T02:58:29;1.02;;;0.80;;
32323;SDS011;25666;44.350;9.222;2023-03-16T03:00:56;1.88;;;0.90;;
32323;SDS011;25666;44.350;9.222;2023-03-16T03:03:22;1.67;;;1.20;;
32323;SDS011;25666;44.350;9.222;2023-03-16T03:05:47;1.80;;;0.90;;
32323;SDS011;25666;44.350;9.222;2023-03-16T03:08:13;2.13;;;1.00;;
32323;SDS011;25666;44.350;9.222;2023-03-16T03:10:40;3.65;;;1.00;;
32323;SDS011;25666;44.350;9.222;2023-03-16T03:13:06;2.60;;;1.23;;
32323;SDS011;25666;44.350;9.222;2023-03-16T03:15:33;0.82;;;0.73;;
32323;SDS011;25666;44.350;9.222;2023-03-16T03:18:04;3.47;;;1.10;;
32323;SDS011;25666;44.350;9.222;2023-03-16T03:20:31;2.15;;;1.15;;
32323;SDS011;25666;44.350;9.222;2023-03-16T03:22:57;1.77;;;0.80;;
32323;SDS011;25666;44.350;9.222;2023-03-16T03:25:22;1.77;;;0.90;;
32323;SDS011;25666;44.350;9.222;2023-03-16T03:27:51;6.82;;;1.30;;
32323;SDS011;25666;44.350;9.222;2023-03-16T03:30:19;1.17;;;1.08;;
32323;SDS011;25666;44.350;9.222;2023-03-16T03:32:47;1.20;;;0.88;;
32323;SDS011;25666;44.350;9.222;2023-03-16T03:35:13;4.30;;;1.10;;
32323;SDS011;25666;44.350;9.222;2023-03-16T03:37:40;2.40;;;1.17;;
32323;SDS011;25666;44.350;9.222;2023-03-16T03:40:08;1.25;;;0.60;;
32323;SDS011;25666;44.350;9.222;2023-03-16T03:42:37;3.03;;;0.57;;
32323;SDS011;25666;44.350;9.222;2023-03-16T03:45:04;1.00;;;0.70;;
32323;SDS011;25666;44.350;9.222;2023-03-16T03:47:30;1.38;;;0.70;;
32323;SDS011;25666;44.350;9.222;2023-03-16T03:49:56;3.55;;;0.90;;
32323;SDS011;25666;44.350;9.222;2023-03-16T03:52:22;0.77;;;0.65;;
32323;SDS011;25666;44.350;9.222;2023-03-16T03:54:48;0.77;;;0.70;;
32323;SDS011;25666;44.350;9.222;2023-03-16T03:57:15;2.67;;;1.17;;
32323;SDS011;25666;44.350;9.222;2023-03-16T03:59:41;2.05;;;0.80;;
32323;SDS011;25666;44.350;9.222;2023-03-16T04:04:59;3.60;;;1.30;;
32323;SDS011;25666;44.350;9.222;2023-03-16T04:07:26;2.97;;;1.35;;
32323;SDS011;25666;44.350;9.222;2023-03-16T04:09:55;2.65;;;1.25;;
32323;SDS011;25666;44.350;9.222;2023-03-16T04:12:26;3.25;;;1.20;;
32323;SDS011;25666;44.350;9.222;2023-03-16T04:14:52;1.70;;;1.00;;
32323;SDS011;25666;44.350;9.222;2023-03-16T04:17:18;2.92;;;1.30;;
32323;SDS011;25666;44.350;9.222;2023-03-16T04:19:45;3.15;;;1.20;;
32323;SDS011;25666;44.350;9.222;2023-03-16T04:22:13;2.72;;;1.15;;
32323;SDS011;25666;44.350;9.222;2023-03-16T04:24:39;2.88;;;1.60;;
32323;SDS011;25666;44.350;9.222;2023-03-16T04:27:08;4.22;;;1.40;;
32323;SDS011;25666;44.350;9.222;2023-03-16T04:29:36;3.10;;;1.25;;
32323;SDS011;25666;44.350;9.222;2023-03-16T04:32:03;5.05;;;1.00;;
32323;SDS011;25666;44.350;9.222;2023-03-16T04:34:32;5.05;;;1.42;;
32323;SDS011;25666;44.350;9.222;2023-03-16T04:37:01;5.95;;;1.40;;
32323;SDS011;25666;44.350;9.222;2023-03-16T04:39:27;4.43;;;1.15;;
32323;SDS011;25666;44.350;9.222;2023-03-16T04:41:53;4.80;;;1.20;;
32323;SDS011;25666;44.350;9.222;2023-03-16T04:44:21;1.40;;;0.93;;
32323;SDS011;25666;44.350;9.222;2023-03-16T04:46:48;5.63;;;1.42;;
32323;SDS011;25666;44.350;9.222;2023-03-16T04:49:13;3.10;;;1.20;;
32323;SDS011;25666;44.350;9.222;2023-03-16T04:51:42;3.47;;;1.27;;
32323;SDS011;25666;44.350;9.222;2023-03-16T04:54:11;3.00;;;1.45;;
32323;SDS011;25666;44.350;9.222;2023-03-16T04:56:39;6.75;;;1.55;;
32323;SDS011;25666;44.350;9.222;2023-03-16T04:59:11;7.82;;;1.30;;
32323;SDS011;25666;44.350;9.222;2023-03-16T05:01:43;4.25;;;2.08;;
32323;SDS011;25666;44.350;9.222;2023-03-16T05:04:10;2.90;;;1.55;;
32323;SDS011;25666;44.350;9.222;2023-03-16T05:06:36;7.20;;;1.38;;
32323;SDS011;25666;44.350;9.222;2023-03-16T05:09:02;2.35;;;1.48;;
32323;SDS011;25666;44.350;9.222;2023-03-16T05:11:34;1.63;;;1.10;;
32323;SDS011;25666;44.350;9.222;2023-03-16T05:14:02;2.97;;;1.50;;
32323;SDS011;25666;44.350;9.222;2023-03-16T05:16:30;2.58;;;1.48;;
32323;SDS011;25666;44.350;9.222;2023-03-16T05:18:59;5.70;;;1.52;;
32323;SDS011;25666;44.350;9.222;2023-03-16T05:21:28;6.47;;;1.50;;
32323;SDS011;25666;44.350;9.222;2023-03-16T05:24:03;6.70;;;1.70;;
32323;SDS011;25666;44.350;9.222;2023-03-16T05:26:30;9.30;;;1.60;;
32323;SDS011;25666;44.350;9.222;2023-03-16T05:28:56;3.13;;;1.60;;
32323;SDS011;25666;44.350;9.222;2023-03-16T05:31:24;3.42;;;1.00;;
32323;SDS011;25666;44.350;9.222;2023-03-16T05:33:52;3.50;;;1.60;;
32323;SDS011;25666;44.350;9.222;2023-03-16T05:36:19;7.13;;;2.00;;
32323;SDS011;25666;44.350;9.222;2023-03-16T05:38:48;12.95;;;7.00;;
32323;SDS011;25666;44.350;9.222;2023-03-16T05:41:23;11.93;;;2.03;;
32323;SDS011;25666;44.350;9.222;2023-03-16T05:44:02;5.97;;;1.83;;
32323;SDS011;25666;44.350;9.222;2023-03-16T05:46:38;3.65;;;2.17;;
32323;SDS011;25666;44.350;9.222;2023-03-16T05:49:04;8.43;;;1.75;;
32323;SDS011;25666;44.350;9.222;2023-03-16T05:51:30;6.38;;;2.33;;
32323;SDS011;25666;44.350;9.222;2023-03-16T05:53:56;7.22;;;2.30;;
32323;SDS011;25666;44.350;9.222;2023-03-16T05:56:29;5.05;;;2.40;;
32323;SDS011;25666;44.350;9.222;2023-03-16T05:58:56;8.80;;;3.42;;
32323;SDS011;25666;44.350;9.222;2023-03-16T06:01:23;5.72;;;1.88;;
32323;SDS011;25666;44.350;9.222;2023-03-16T06:03:49;7.93;;;3.15;;
32323;SDS011;25666;44.350;9.222;2023-03-16T06:06:19;12.07;;;3.00;;
32323;SDS011;25666;44.350;9.222;2023-03-16T06:08:58;11.48;;;3.67;;
32323;SDS011;25666;44.350;9.222;2023-03-16T06:11:25;7.97;;;4.15;;
32323;SDS011;25666;44.350;9.222;2023-03-16T06:13:50;12.88;;;5.40;;
32323;SDS011;25666;44.350;9.222;2023-03-16T06:16:16;11.48;;;4.35;;
32323;SDS011;25666;44.350;9.222;2023-03-16T06:18:42;13.00;;;6.45;;
32323;SDS011;25666;44.350;9.222;2023-03-16T06:21:08;23.80;;;11.43;;
32323;SDS011;25666;44.350;9.222;2023-03-16T06:23:34;21.55;;;9.80;;
32323;SDS011;25666;44.350;9.222;2023-03-16T06:26:01;21.45;;;11.20;;
32323;SDS011;25666;44.350;9.222;2023-03-16T06:28:29;14.80;;;7.70;;
32323;SDS011;25666;44.350;9.222;2023-03-16T06:30:56;21.67;;;11.63;;
32323;SDS011;25666;44.350;9.222;2023-03-16T06:33:25;25.77;;;12.98;;
32323;SDS011;25666;44.350;9.222;2023-03-16T06:35:51;24.15;;;13.02;;
32323;SDS011;25666;44.350;9.222;2023-03-16T06:38:26;20.50;;;9.52;;
32323;SDS011;25666;44.350;9.222;2023-03-16T06:41:12;26.95;;;8.63;;
32323;SDS011;25666;44.350;9.222;2023-03-16T06:43:38;32.20;;;14.13;;
32323;SDS011;25666;44.350;9.222;2023-03-16T06:46:04;42.85;;;24.52;;
32323;SDS011;25666;44.350;9.222;2023-03-16T06:48:29;80.55;;;42.70;;
32323;SDS011;25666;44.350;9.222;2023-03-16T06:50:56;85.80;;;55.25;;
32323;SDS011;25666;44.350;9.222;2023-03-16T06:53:26;62.80;;;35.20;;
32323;SDS011;25666;44.350;9.222;2023-03-16T06:55:53;38.47;;;26.17;;
32323;SDS011;25666;44.350;9.222;2023-03-16T06:58:19;36.30;;;22.27;;
32323;SDS011;25666;44.350;9.222;2023-03-16T07:00:45;32.65;;;20.00;;
32323;SDS011;25666;44.350;9.222;2023-03-16T07:03:11;29.88;;;16.20;;
32323;SDS011;25666;44.350;9.222;2023-03-16T07:05:40;17.77;;;11.27;;
32323;SDS011;25666;44.350;9.222;2023-03-16T07:08:07;29.73;;;11.65;;
32323;SDS011;25666;44.350;9.222;2023-03-16T07:10:33;23.88;;;10.07;;
32323;SDS011;25666;44.350;9.222;2023-03-16T07:12:58;21.15;;;12.10;;
32323;SDS011;25666;44.350;9.222;2023-03-16T07:15:24;20.88;;;11.68;;
32323;SDS011;25666;44.350;9.222;2023-03-16T07:17:52;34.15;;;14.20;;
32323;SDS011;25666;44.350;9.222;2023-03-16T07:20:18;33.92;;;13.38;;
32323;SDS011;25666;44.350;9.222;2023-03-16T07:22:44;28.08;;;14.98;;
32323;SDS011;25666;44.350;9.222;2023-03-16T07:25:11;32.35;;;15.23;;
32323;SDS011;25666;44.350;9.222;2023-03-16T07:27:42;22.80;;;12.63;;
32323;SDS011;25666;44.350;9.222;2023-03-16T07:30:11;23.00;;;12.43;;
32323;SDS011;25666;44.350;9.222;2023-03-16T07:32:40;24.95;;;13.48;;
32323;SDS011;25666;44.350;9.222;2023-03-16T07:35:07;21.08;;;11.10;;
32323;SDS011;25666;44.350;9.222;2023-03-16T07:37:34;18.85;;;10.55;;
32323;SDS011;25666;44.350;9.222;2023-03-16T07:40:02;21.15;;;9.70;;
32323;SDS011;25666;44.350;9.222;2023-03-16T07:42:31;24.35;;;8.77;;
32323;SDS011;25666;44.350;9.222;2023-03-16T07:45:22;19.95;;;8.75;;
32323;SDS011;25666;44.350;9.222;2023-03-16T07:47:48;24.27;;;8.18;;
32323;SDS011;25666;44.350;9.222;2023-03-16T07:50:27;17.20;;;8.55;;
32323;SDS011;25666;44.350;9.222;2023-03-16T07:52:54;21.60;;;8.65;;
32323;SDS011;25666;44.350;9.222;2023-03-16T07:55:20;19.67;;;8.77;;
32323;SDS011;25666;44.350;9.222;2023-03-16T07:57:47;22.02;;;9.05;;
32323;SDS011;25666;44.350;9.222;2023-03-16T08:00:15;18.13;;;8.35;;
32323;SDS011;25666;44.350;9.222;2023-03-16T08:02:44;17.27;;;6.80;;
32323;SDS011;25666;44.350;9.222;2023-03-16T08:05:11;18.58;;;7.88;;
32323;SDS011;25666;44.350;9.222;2023-03-16T08:07:43;18.50;;;7.10;;
32323;SDS011;25666;44.350;9.222;2023-03-16T08:10:12;9.05;;;4.57;;
32323;SDS011;25666;44.350;9.222;2023-03-16T08:12:44;10.07;;;4.38;;
32323;SDS011;25666;44.350;9.222;2023-03-16T08:15:10;10.40;;;2.95;;
32323;SDS011;25666;44.350;9.222;2023-03-16T08:17:36;6.80;;;2.80;;
32323;SDS011;25666;44.350;9.222;2023-03-16T08:20:04;4.75;;;2.08;;
32323;SDS011;25666;44.350;9.222;2023-03-16T08:22:35;3.78;;;2.10;;
32323;SDS011;25666;44.350;9.222;2023-03-16T08:25:01;6.15;;;2.20;;
32323;SDS011;25666;44.350;9.222;2023-03-16T08:27:28;3.63;;;1.60;;
32323;SDS011;25666;44.350;9.222;2023-03-16T08:29:57;2.80;;;1.52;;
32323;SDS011;25666;44.350;9.222;2023-03-16T08:32:29;4.45;;;1.85;;
32323;SDS011;25666;44.350;9.222;2023-03-16T08:34:55;2.78;;;1.52;;
32323;SDS011;25666;44.350;9.222;2023-03-16T08:37:21;4.57;;;1.55;;
32323;SDS011;25666;44.350;9.222;2023-03-16T08:39:51;3.45;;;1.73;;
32323;SDS011;25666;44.350;9.222;2023-03-16T08:42:17;4.32;;;1.05;;
32323;SDS011;25666;44.350;9.222;2023-03-16T08:44:48;1.95;;;1.30;;
32323;SDS011;25666;44.350;9.222;2023-03-16T08:47:13;2.80;;;1.35;;
32323;SDS011;25666;44.350;9.222;2023-03-16T08:49:42;2.65;;;1.10;;
32323;SDS011;25666;44.350;9.222;2023-03-16T08:52:12;3.15;;;1.85;;
32323;SDS011;25666;44.350;9.222;2023-03-16T08:54:38;3.63;;;1.23;;
32323;SDS011;25666;44.350;9.222;2023-03-16T08:57:03;2.22;;;1.02;;
32323;SDS011;25666;44.350;9.222;2023-03-16T08:59:29;1.05;;;0.95;;
32323;SDS011;25666;44.350;9.222;2023-03-16T09:01:55;2.60;;;0.90;;
32323;SDS011;25666;44.350;9.222;2023-03-16T09:04:21;3.15;;;0.90;;
32323;SDS011;25666;44.350;9.222;2023-03-16T09:06:47;1.35;;;0.98;;
32323;SDS011;25666;44.350;9.222;2023-03-16T09:09:15;2.25;;;1.42;;
32323;SDS011;25666;44.350;9.222;2023-03-16T09:11:40;1.42;;;0.85;;
32323;SDS011;25666;44.350;9.222;2023-03-16T09:14:06;6.45;;;1.42;;
32323;SDS011;25666;44.350;9.222;2023-03-16T09:16:31;4.82;;;1.50;;
32323;SDS011;25666;44.350;9.222;2023-03-16T09:18:57;2.63;;;1.15;;
32323;SDS011;25666;44.350;9.222;2023-03-16T09:21:22;1.98;;;0.82;;
32323;SDS011;25666;44.350;9.222;2023-03-16T09:23:48;2.03;;;1.30;;
32323;SDS011;25666;44.350;9.222;2023-03-16T09:26:14;5.55;;;1.20;;
32323;SDS011;25666;44.350;9.222;2023-03-16T09:28:40;7.30;;;1.42;;
32323;SDS011;25666;44.350;9.222;2023-03-16T09:31:06;2.20;;;1.40;;
32323;SDS011;25666;44.350;9.222;2023-03-16T09:33:33;3.78;;;1.40;;
32323;SDS011;25666;44.350;9.222;2023-03-16T09:35:59;3.30;;;1.05;;
32323;SDS011;25666;44.350;9.222;2023-03-16T09:38:25;2.13;;;0.93;;
32323;SDS011;25666;44.350;9.222;2023-03-16T09:48:46;9.32;;;1.13;;
32323;SDS011;25666;44.350;9.222;2023-03-16T09:51:15;3.70;;;1.13;;
32323;SDS011;25666;44.350;9.222;2023-03-16T09:53:46;1.95;;;1.13;;
32323;SDS011;25666;44.350;9.222;2023-03-16T09:56:22;3.38;;;1.08;;
32323;SDS011;25666;44.350;9.222;2023-03-16T09:58:54;5.85;;;1.05;;
32323;SDS011;25666;44.350;9.222;2023-03-16T10:04:21;3.95;;;1.50;;
32323;SDS011;25666;44.350;9.222;2023-03-16T10:07:44;2.00;;;1.17;;
32323;SDS011;25666;44.350;9.222;2023-03-16T10:10:31;4.00;;;0.85;;
32323;SDS011;25666;44.350;9.222;2023-03-16T10:13:02;1.13;;;0.90;;
32323;SDS011;25666;44.350;9.222;2023-03-16T10:15:37;1.70;;;1.00;;
32323;SDS011;25666;44.350;9.222;2023-03-16T10:18:09;8.05;;;1.15;;
32323;SDS011;25666;44.350;9.222;2023-03-16T10:20:44;2.47;;;1.38;;
32323;SDS011;25666;44.350;9.222;2023-03-16T10:23:22;7.53;;;1.60;;
32323;SDS011;25666;44.350;9.222;2023-03-16T10:25:50;2.08;;;1.17;;
32323;SDS011;25666;44.350;9.222;2023-03-16T10:28:18;4.32;;;1.23;;
32323;SDS011;25666;44.350;9.222;2023-03-16T10:30:46;6.65;;;1.38;;
32323;SDS011;25666;44.350;9.222;2023-03-16T10:36:00;3.75;;;1.30;;
32323;SDS011;25666;44.350;9.222;2023-03-16T10:41:05;4.18;;;1.00;;
32323;SDS011;25666;44.350;9.222;2023-03-16T10:43:45;4.30;;;1.15;;
32323;SDS011;25666;44.350;9.222;2023-03-16T10:46:14;2.55;;;1.05;;
32323;SDS011;25666;44.350;9.222;2023-03-16T10:48:40;3.75;;;1.27;;
32323;SDS011;25666;44.350;9.222;2023-03-16T10:51:12;1.77;;;0.90;;
32323;SDS011;25666;44.350;9.222;2023-03-16T10:53:41;3.00;;;0.95;;
32323;SDS011;25666;44.350;9.222;2023-03-16T10:56:17;3.30;;;1.00;;
32323;SDS011;25666;44.350;9.222;2023-03-16T10:58:47;3.13;;;1.20;;
32323;SDS011;25666;44.350;9.222;2023-03-16T11:01:17;3.72;;;1.45;;
32323;SDS011;25666;44.350;9.222;2023-03-16T11:03:50;1.02;;;0.90;;
32323;SDS011;25666;44.350;9.222;2023-03-16T11:06:24;1.67;;;0.80;;
32323;SDS011;25666;44.350;9.222;2023-03-16T11:09:01;1.02;;;0.70;;
32323;SDS011;25666;44.350;9.222;2023-03-16T11:11:32;1.42;;;0.80;;
32323;SDS011;25666;44.350;9.222;2023-03-16T11:14:00;4.15;;;0.80;;
32323;SDS011;25666;44.350;9.222;2023-03-16T11:19:28;2.75;;;1.73;;
32323;SDS011;25666;44.350;9.222;2023-03-16T11:27:33;1.77;;;1.00;;
32323;SDS011;25666;44.350;9.222;2023-03-16T11:30:02;1.02;;;0.90;;
32323;SDS011;25666;44.350;9.222;2023-03-16T11:32:34;1.70;;;1.10;;
32323;SDS011;25666;44.350;9.222;2023-03-16T11:37:42;1.40;;;1.08;;
32323;SDS011;25666;44.350;9.222;2023-03-16T11:43:14;3.60;;;1.00;;
32323;SDS011;25666;44.350;9.222;2023-03-16T12:00:30;3.15;;;1.23;;
32323;SDS011;25666;44.350;9.222;2023-03-16T12:06:00;0.80;;;0.80;;
32323;SDS011;25666;44.350;9.222;2023-03-16T12:16:56;1.50;;;0.60;;
32323;SDS011;25666;44.350;9.222;2023-03-16T12:20:09;1.98;;;0.60;;
32323;SDS011;25666;44.350;9.222;2023-03-16T12:22:35;3.53;;;0.70;;
32323;SDS011;25666;44.350;9.222;2023-03-16T12:25:05;1.00;;;0.50;;
32323;SDS011;25666;44.350;9.222;2023-03-16T12:27:44;1.35;;;0.68;;
32323;SDS011;25666;44.350;9.222;2023-03-16T12:33:02;1.23;;;0.73;;
32323;SDS011;25666;44.350;9.222;2023-03-16T12:38:33;1.77;;;0.80;;
32323;SDS011;25666;44.350;9.222;2023-03-16T12:41:20;2.47;;;0.70;;
32323;SDS011;25666;44.350;9.222;2023-03-16T12:44:06;3.42;;;1.23;;
32323;SDS011;25666;44.350;9.222;2023-03-16T12:49:20;3.88;;;0.80;;
32323;SDS011;25666;44.350;9.222;2023-03-16T12:51:57;1.25;;;0.70;;
32323;SDS011;25666;44.350;9.222;2023-03-16T12:54:25;0.70;;;0.70;;
32323;SDS011;25666;44.350;9.222;2023-03-16T12:56:53;3.05;;;0.73;;
32323;SDS011;25666;44.350;9.222;2023-03-16T12:59:25;2.88;;;0.98;;
32323;SDS011;25666;44.350;9.222;2023-03-16T13:02:24;2.00;;;0.68;;
32323;SDS011;25666;44.350;9.222;2023-03-16T13:04:55;2.15;;;0.93;;
32323;SDS011;25666;44.350;9.222;2023-03-16T13:07:25;3.53;;;0.90;;
32323;SDS011;25666;44.350;9.222;2023-03-16T13:09:55;4.57;;;1.00;;
32323;SDS011;25666;44.350;9.222;2023-03-16T13:12:26;5.88;;;0.80;;
32323;SDS011;25666;44.350;9.222;2023-03-16T13:14:53;1.92;;;0.47;;
32323;SDS011;25666;44.350;9.222;2023-03-16T13:20:01;2.05;;;1.25;;
32323;SDS011;25666;44.350;9.222;2023-03-16T13:22:43;5.90;;;1.20;;
32323;SDS011;25666;44.350;9.222;2023-03-16T13:27:53;4.18;;;0.80;;
32323;SDS011;25666;44.350;9.222;2023-03-16T13:30:21;5.15;;;0.77;;
32323;SDS011;25666;44.350;9.222;2023-03-16T13:32:58;4.20;;;0.93;;
32323;SDS011;25666;44.350;9.222;2023-03-16T13:35:42;1.83;;;0.70;;
32323;SDS011;25666;44.350;9.222;2023-03-16T13:38:13;7.13;;;0.80;;
32323;SDS011;25666;44.350;9.222;2023-03-16T13:40:47;5.07;;;0.80;;
32323;SDS011;25666;44.350;9.222;2023-03-16T13:43:15;0.95;;;0.70;;
32323;SDS011;25666;44.350;9.222;2023-03-16T13:45:43;2.15;;;0.75;;
32323;SDS011;25666;44.350;9.222;2023-03-16T13:48:12;4.35;;;1.10;;
32323;SDS011;25666;44.350;9.222;2023-03-16T13:50:39;2.72;;;0.73;;
32323;SDS011;25666;44.350;9.222;2023-03-16T13:53:22;2.85;;;0.75;;
32323;SDS011;25666;44.350;9.222;2023-03-16T13:55:57;0.88;;;0.60;;
32323;SDS011;25666;44.350;9.222;2023-03-16T13:58:30;1.55;;;1.42;;
32323;SDS011;25666;44.350;9.222;2023-03-16T14:01:02;3.85;;;0.90;;
32323;SDS011;25666;44.350;9.222;2023-03-16T14:03:33;3.80;;;0.90;;
32323;SDS011;25666;44.350;9.222;2023-03-16T14:08:27;1.50;;;0.90;;
32323;SDS011;25666;44.350;9.222;2023-03-16T14:10:54;4.30;;;0.90;;
32323;SDS011;25666;44.350;9.222;2023-03-16T14:15:53;2.13;;;0.98;;
32323;SDS011;25666;44.350;9.222;2023-03-16T14:18:39;2.75;;;0.98;;
32323;SDS011;25666;44.350;9.222;2023-03-16T14:21:07;4.35;;;0.90;;
32323;SDS011;25666;44.350;9.222;2023-03-16T14:23:44;3.92;;;0.88;;
32323;SDS011;25666;44.350;9.222;2023-03-16T14:26:17;1.30;;;0.60;;
32323;SDS011;25666;44.350;9.222;2023-03-16T14:28:53;1.10;;;0.50;;
32323;SDS011;25666;44.350;9.222;2023-03-16T14:31:19;1.92;;;0.95;;
32323;SDS011;25666;44.350;9.222;2023-03-16T14:33:45;1.95;;;0.90;;
32323;SDS011;25666;44.350;9.222;2023-03-16T14:36:12;7.88;;;0.90;;
32323;SDS011;25666;44.350;9.222;2023-03-16T14:38:46;1.92;;;0.95;;
32323;SDS011;25666;44.350;9.222;2023-03-16T14:43:47;2.65;;;0.93;;
32323;SDS011;25666;44.350;9.222;2023-03-16T14:46:18;2.20;;;1.15;;
32323;SDS011;25666;44.350;9.222;2023-03-16T14:49:07;2.03;;;1.00;;
32323;SDS011;25666;44.350;9.222;2023-03-16T14:51:42;6.80;;;1.05;;
32323;SDS011;25666;44.350;9.222;2023-03-16T14:54:16;5.57;;;1.30;;
32323;SDS011;25666;44.350;9.222;2023-03-16T14:56:49;13.68;;;2.45;;
32323;SDS011;25666;44.350;9.222;2023-03-16T14:59:19;5.68;;;1.40;;
32323;SDS011;25666;44.350;9.222;2023-03-16T15:01:46;10.13;;;3.17;;
32323;SDS011;25666;44.350;9.222;2023-03-16T15:04:14;1.95;;;1.38;;
32323;SDS011;25666;44.350;9.222;2023-03-16T15:06:49;2.33;;;1.05;;
32323;SDS011;25666;44.350;9.222;2023-03-16T15:09:34;3.03;;;1.13;;
32323;SDS011;25666;44.350;9.222;2023-03-16T15:12:03;3.63;;;1.05;;
32323;SDS011;25666;44.350;9.222;2023-03-16T15:14:29;5.18;;;0.95;;
32323;SDS011;25666;44.350;9.222;2023-03-16T15:17:12;4.85;;;1.05;;
32323;SDS011;25666;44.350;9.222;2023-03-16T15:19:39;6.13;;;1.00;;
32323;SDS011;25666;44.350;9.222;2023-03-16T15:22:05;2.47;;;1.10;;
32323;SDS011;25666;44.350;9.222;2023-03-16T15:24:31;1.88;;;0.80;;
32323;SDS011;25666;44.350;9.222;2023-03-16T15:26:57;5.60;;;1.27;;
32323;SDS011;25666;44.350;9.222;2023-03-16T15:29:23;5.07;;;1.20;;
32323;SDS011;25666;44.350;9.222;2023-03-16T15:31:48;1.95;;;1.05;;
32323;SDS011;25666;44.350;9.222;2023-03-16T15:34:14;1.38;;;1.00;;
32323;SDS011;25666;44.350;9.222;2023-03-16T15:36:40;7.25;;;0.82;;
32323;SDS011;25666;44.350;9.222;2023-03-16T15:39:08;6.13;;;0.95;;
32323;SDS011;25666;44.350;9.222;2023-03-16T15:41:40;3.60;;;1.25;;
32323;SDS011;25666;44.350;9.222;2023-03-16T15:44:10;1.55;;;0.90;;
32323;SDS011;25666;44.350;9.222;2023-03-16T15:46:36;3.80;;;1.02;;
32323;SDS011;25666;44.350;9.222;2023-03-16T15:49:02;6.13;;;1.05;;
32323;SDS011;25666;44.350;9.222;2023-03-16T15:51:28;3.58;;;1.23;;
32323;SDS011;25666;44.350;9.222;2023-03-16T15:53:56;1.20;;;0.70;;
32323;SDS011;25666;44.350;9.222;2023-03-16T15:56:26;2.58;;;1.10;;
32323;SDS011;25666;44.350;9.222;2023-03-16T15:58:58;2.95;;;1.08;;
32323;SDS011;25666;44.350;9.222;2023-03-16T16:01:27;1.48;;;1.10;;
32323;SDS011;25666;44.350;9.222;2023-03-16T16:03:56;2.60;;;1.27;;
32323;SDS011;25666;44.350;9.222;2023-03-16T16:06:22;2.53;;;1.30;;
32323;SDS011;25666;44.350;9.222;2023-03-16T16:08:48;1.77;;;1.40;;
32323;SDS011;25666;44.350;9.222;2023-03-16T16:11:14;1.42;;;1.10;;
32323;SDS011;25666;44.350;9.222;2023-03-16T16:13:41;3.38;;;1.35;;
32323;SDS011;25666;44.350;9.222;2023-03-16T16:16:09;4.43;;;1.65;;
32323;SDS011;25666;44.350;9.222;2023-03-16T16:18:37;4.78;;;2.03;;
32323;SDS011;25666;44.350;9.222;2023-03-16T16:21:04;3.90;;;1.67;;
32323;SDS011;25666;44.350;9.222;2023-03-16T16:23:31;3.60;;;2.10;;
32323;SDS011;25666;44.350;9.222;2023-03-16T16:25:57;4.30;;;2.08;;